createdAt,value
2022-11-19T00:01:34.735Z,9.07
2022-11-19T00:04:02.698Z,8.70
2022-11-19T00:06:30.611Z,6.77
2022-11-19T00:08:58.480Z,9.43
2022-11-19T00:11:46.375Z,9.50
2022-11-19T00:14:16.112Z,7.73
2022-11-19T00:16:45.460Z,10.10
2022-11-19T00:19:14.584Z,8.67
2022-11-19T00:21:42.617Z,9.53
2022-11-19T00:24:10.979Z,10.03
2022-11-19T00:26:40.221Z,9.80
2022-11-19T00:29:08.065Z,9.97
2022-11-19T00:31:35.980Z,9.47
2022-11-19T00:34:03.867Z,10.57
2022-11-19T00:36:31.831Z,11.17
2022-11-19T00:38:59.712Z,10.60
2022-11-19T00:41:27.550Z,10.43
2022-11-19T00:43:57.210Z,9.00
2022-11-19T00:46:27.265Z,11.73
2022-11-19T00:48:56.507Z,9.67
2022-11-19T00:51:26.418Z,10.03
2022-11-19T00:53:54.548Z,11.10
2022-11-19T00:56:24.516Z,11.90
2022-11-19T00:58:53.120Z,10.30
2022-11-19T01:01:23.755Z,12.80
2022-11-19T01:03:51.907Z,13.17
2022-11-19T01:06:21.979Z,12.30
2022-11-19T01:08:51.180Z,12.77
2022-11-19T01:11:20.934Z,13.37
2022-11-19T01:13:49.384Z,12.23
2022-11-19T01:16:19.355Z,11.87
2022-11-19T01:18:50.694Z,15.00
2022-11-19T01:21:20.182Z,13.43
2022-11-19T01:23:48.672Z,13.07
2022-11-19T01:26:17.736Z,11.93
2022-11-19T01:28:46.215Z,13.83
2022-11-19T01:31:16.398Z,14.60
2022-11-19T01:33:45.224Z,12.80
2022-11-19T01:36:17.106Z,13.47
2022-11-19T01:38:50.498Z,14.40
2022-11-19T01:41:18.677Z,13.77
2022-11-19T01:43:49.507Z,13.33
2022-11-19T01:46:19.482Z,14.60
2022-11-19T01:48:51.822Z,15.73
2022-11-19T01:51:26.938Z,17.50
2022-11-19T01:53:58.938Z,13.80
2022-11-19T01:56:27.916Z,15.87
2022-11-19T01:59:00.045Z,17.03
2022-11-19T02:01:30.177Z,15.37
2022-11-19T02:04:01.638Z,17.20
2022-11-19T02:06:31.856Z,18.10
2022-11-19T02:08:59.816Z,23.13
2022-11-19T02:11:49.883Z,20.67
2022-11-19T02:14:31.865Z,21.30
2022-11-19T02:17:07.377Z,16.37
2022-11-19T02:20:00.409Z,18.60
2022-11-19T02:22:51.435Z,16.40
2022-11-19T02:25:32.443Z,20.07
2022-11-19T02:28:25.954Z,16.27
2022-11-19T02:30:59.052Z,19.73
2022-11-19T02:33:31.078Z,18.43
2022-11-19T02:36:04.462Z,20.57
2022-11-19T02:38:38.853Z,17.90
2022-11-19T02:41:27.613Z,16.50
2022-11-19T02:44:21.916Z,18.20
2022-11-19T02:46:54.397Z,19.77
2022-11-19T02:49:26.992Z,21.17
2022-11-19T02:51:55.580Z,19.47
2022-11-19T02:54:23.501Z,20.43
2022-11-19T02:56:53.061Z,20.90
2022-11-19T02:59:43.639Z,19.53
2022-11-19T03:02:32.731Z,18.73
2022-11-19T03:05:01.119Z,19.07
2022-11-19T03:07:29.253Z,17.07
2022-11-19T03:10:00.293Z,20.20
2022-11-19T03:12:37.130Z,18.33
2022-11-19T03:15:34.020Z,17.77
2022-11-19T03:18:08.226Z,19.10
2022-11-19T03:20:39.585Z,21.83
2022-11-19T03:23:14.518Z,20.80
2022-11-19T03:25:47.865Z,16.77
2022-11-19T03:28:20.168Z,23.10
2022-11-19T03:30:50.399Z,19.67
2022-11-19T03:33:25.300Z,21.00
2022-11-19T03:35:56.001Z,19.70
2022-11-19T03:38:33.827Z,17.40
2022-11-19T03:41:04.276Z,18.97
2022-11-19T03:43:38.431Z,18.93
2022-11-19T03:46:12.061Z,18.90
2022-11-19T03:48:44.750Z,21.10
2022-11-19T03:51:18.461Z,22.70
2022-11-19T03:53:46.638Z,17.03
2022-11-19T03:56:19.446Z,20.03
2022-11-19T03:58:48.706Z,20.23
2022-11-19T04:01:17.225Z,19.20
2022-11-19T04:04:06.581Z,15.57
2022-11-19T04:06:34.554Z,16.70
2022-11-19T04:09:02.448Z,17.40
2022-11-19T04:11:30.343Z,13.60
2022-11-19T04:13:58.251Z,14.00
2022-11-19T04:16:26.140Z,13.27
2022-11-19T04:18:55.443Z,19.07
2022-11-19T04:21:23.722Z,19.87
2022-11-19T04:23:51.619Z,15.73
2022-11-19T04:26:19.623Z,19.20
2022-11-19T04:28:47.558Z,15.40
2022-11-19T04:31:18.039Z,14.87
2022-11-19T04:33:46.216Z,18.40
2022-11-19T04:36:15.546Z,15.03
2022-11-19T04:38:43.706Z,15.03
2022-11-19T04:41:11.746Z,16.07
2022-11-19T04:43:39.667Z,15.00
2022-11-19T04:46:07.872Z,15.00
2022-11-19T04:48:35.787Z,16.13
2022-11-19T04:51:03.759Z,14.73
2022-11-19T04:53:33.052Z,16.93
2022-11-19T04:56:00.993Z,14.33
2022-11-19T04:58:28.922Z,12.23
2022-11-19T05:00:56.886Z,14.80
2022-11-19T05:03:24.756Z,17.90
2022-11-19T05:05:52.729Z,18.13
2022-11-19T05:08:20.691Z,13.63
2022-11-19T05:10:50.110Z,18.67
2022-11-19T05:13:18.156Z,15.00
2022-11-19T05:15:46.505Z,16.80
2022-11-19T05:18:14.799Z,13.83
2022-11-19T05:20:42.766Z,13.10
2022-11-19T05:23:10.700Z,16.80
2022-11-19T05:25:38.659Z,12.77
2022-11-19T05:28:07.977Z,18.73
2022-11-19T05:30:35.970Z,13.13
2022-11-19T05:33:03.877Z,13.50
2022-11-19T05:35:32.316Z,16.27
2022-11-19T05:38:00.251Z,14.17
2022-11-19T05:40:28.193Z,13.80
2022-11-19T05:42:56.122Z,14.07
2022-11-19T05:45:25.421Z,13.97
2022-11-19T05:47:55.847Z,14.93
2022-11-19T05:50:23.939Z,16.53
2022-11-19T05:52:52.140Z,13.93
2022-11-19T05:55:20.847Z,14.63
2022-11-19T05:57:48.797Z,16.73
2022-11-19T06:00:17.895Z,14.20
2022-11-19T06:02:47.464Z,15.20
2022-11-19T06:05:15.782Z,15.10
2022-11-19T06:07:43.722Z,14.47
2022-11-19T06:10:12.064Z,18.40
2022-11-19T06:12:44.188Z,16.10
2022-11-19T06:15:14.195Z,16.07
2022-11-19T06:17:42.343Z,17.20
2022-11-19T06:20:12.225Z,16.60
2022-11-19T06:22:40.280Z,16.40
2022-11-19T06:25:09.213Z,17.60
2022-11-19T06:27:37.194Z,15.93
2022-11-19T06:30:06.003Z,16.67
2022-11-19T06:32:33.985Z,21.80
2022-11-19T06:35:01.907Z,20.03
2022-11-19T06:37:31.201Z,21.23
2022-11-19T06:39:59.118Z,18.83
2022-11-19T06:42:39.681Z,19.87
2022-11-19T06:45:09.865Z,18.53
2022-11-19T06:47:38.813Z,20.73
2022-11-19T06:50:07.845Z,21.90
2022-11-19T06:52:37.305Z,22.67
2022-11-19T06:55:05.924Z,24.60
2022-11-19T06:57:33.919Z,21.83
2022-11-19T07:00:01.975Z,19.03
2022-11-19T07:02:30.154Z,22.20
2022-11-19T07:04:58.148Z,20.40
2022-11-19T07:07:26.138Z,23.87
2022-11-19T07:09:55.441Z,24.67
2022-11-19T07:12:23.412Z,23.07
2022-11-19T07:14:51.293Z,24.97
2022-11-19T07:17:19.331Z,21.63
2022-11-19T07:19:47.207Z,18.37
2022-11-19T07:22:15.134Z,22.97
2022-11-19T07:24:43.069Z,23.50
2022-11-19T07:27:12.448Z,22.10
2022-11-19T07:29:40.398Z,25.70
2022-11-19T07:32:08.644Z,25.27
2022-11-19T07:34:36.727Z,20.40
2022-11-19T07:37:04.670Z,26.27
2022-11-19T07:39:32.734Z,24.80
2022-11-19T07:42:23.560Z,25.83
2022-11-19T07:44:54.949Z,32.03
2022-11-19T07:47:23.270Z,24.10
2022-11-19T07:49:51.229Z,28.00
2022-11-19T07:52:19.511Z,27.23
2022-11-19T07:54:47.399Z,22.60
2022-11-19T07:57:15.338Z,26.00
2022-11-19T07:59:43.312Z,25.47
2022-11-19T08:02:13.888Z,27.20
2022-11-19T08:04:42.055Z,25.73
2022-11-19T08:07:10.017Z,28.70
2022-11-19T08:09:38.040Z,26.13
2022-11-19T08:12:06.560Z,20.77
2022-11-19T08:14:34.711Z,24.63
2022-11-19T08:17:19.907Z,25.73
2022-11-19T08:19:49.222Z,25.93
2022-11-19T08:22:17.172Z,27.13
2022-11-19T08:24:46.060Z,24.20
2022-11-19T08:27:13.997Z,24.90
2022-11-19T08:29:41.906Z,24.50
2022-11-19T08:32:09.992Z,24.40
2022-11-19T08:34:37.948Z,25.73
2022-11-19T08:37:07.599Z,23.67
2022-11-19T08:39:35.525Z,21.70
2022-11-19T08:42:20.717Z,22.27
2022-11-19T08:44:48.627Z,27.77
2022-11-19T08:47:16.502Z,21.47
2022-11-19T08:49:44.448Z,19.97
2022-11-19T08:52:15.009Z,20.07
2022-11-19T08:54:42.940Z,19.63
2022-11-19T08:57:10.878Z,27.37
2022-11-19T08:59:38.839Z,22.83
2022-11-19T09:02:06.912Z,25.27
2022-11-19T09:04:35.000Z,23.10
2022-11-19T09:07:02.952Z,21.17
2022-11-19T09:09:32.297Z,22.37
2022-11-19T09:12:00.187Z,19.27
2022-11-19T09:14:28.332Z,18.80
2022-11-19T09:16:56.244Z,19.40
2022-11-19T09:19:24.189Z,17.93
2022-11-19T09:21:52.090Z,21.90
2022-11-19T09:24:20.132Z,20.17
2022-11-19T09:26:52.821Z,24.57
2022-11-19T09:29:21.307Z,19.37
2022-11-19T09:31:49.203Z,18.23
2022-11-19T09:34:17.463Z,22.17
2022-11-19T09:36:45.551Z,17.20
2022-11-19T09:39:13.620Z,20.00
2022-11-19T09:41:53.242Z,20.90
2022-11-19T09:44:33.773Z,21.13
2022-11-19T09:47:11.841Z,20.67
2022-11-19T09:49:46.470Z,19.13
2022-11-19T09:52:17.851Z,20.20
2022-11-19T09:54:50.081Z,21.00
2022-11-19T09:57:27.758Z,20.80
2022-11-19T09:59:58.341Z,21.00
2022-11-19T10:02:26.464Z,22.90
2022-11-19T10:04:55.148Z,21.63
2022-11-19T10:07:36.895Z,19.83
2022-11-19T10:10:17.401Z,16.13
2022-11-19T10:13:11.655Z,22.23
2022-11-19T10:15:52.643Z,18.50
2022-11-19T10:18:31.952Z,21.97
2022-11-19T10:21:06.302Z,18.43
2022-11-19T10:23:45.579Z,17.90
2022-11-19T10:26:16.106Z,19.80
2022-11-19T10:28:52.566Z,20.30
2022-11-19T10:31:30.166Z,18.80
2022-11-19T10:34:04.540Z,20.37
2022-11-19T10:36:37.936Z,17.10
2022-11-19T10:39:13.707Z,19.33
2022-11-19T10:41:47.018Z,17.10
2022-11-19T10:44:41.183Z,17.40
2022-11-19T10:47:20.814Z,16.70
2022-11-19T10:49:53.427Z,18.60
2022-11-19T10:52:29.293Z,15.40
2022-11-19T10:55:01.900Z,18.80
2022-11-19T10:57:32.569Z,17.73
2022-11-19T11:00:02.566Z,16.80
2022-11-19T11:02:43.286Z,17.17
2022-11-19T11:05:15.097Z,17.80
2022-11-19T11:07:54.307Z,18.93
2022-11-19T11:10:47.874Z,18.07
2022-11-19T11:13:54.965Z,19.87
2022-11-19T11:16:27.477Z,18.90
2022-11-19T11:18:59.092Z,22.73
2022-11-19T11:21:34.996Z,18.20
2022-11-19T11:24:04.608Z,17.33
2022-11-19T11:26:34.588Z,16.17
2022-11-19T11:29:05.435Z,19.57
2022-11-19T11:31:40.584Z,22.30
2022-11-19T11:34:16.524Z,20.37
2022-11-19T11:36:45.299Z,19.63
2022-11-19T11:39:27.266Z,19.60
2022-11-19T11:42:15.993Z,16.73
2022-11-19T11:44:52.250Z,16.30
2022-11-19T11:47:25.359Z,18.37
2022-11-19T11:50:05.854Z,19.57
2022-11-19T11:52:38.541Z,17.33
2022-11-19T11:55:08.500Z,16.57
2022-11-19T11:57:38.280Z,18.70
2022-11-19T12:00:32.216Z,18.33
2022-11-19T12:03:04.977Z,19.63
2022-11-19T12:05:45.821Z,20.63
2022-11-19T12:08:26.712Z,17.80
2022-11-19T12:11:04.642Z,19.13
2022-11-19T12:13:51.504Z,17.57
2022-11-19T12:16:29.432Z,17.73
2022-11-19T12:19:16.258Z,18.23
2022-11-19T12:21:50.961Z,20.97
2022-11-19T12:24:43.571Z,21.40
2022-11-19T12:27:20.869Z,17.30
2022-11-19T12:30:00.250Z,18.00
2022-11-19T12:32:50.858Z,19.87
2022-11-19T12:35:30.084Z,17.17
2022-11-19T12:38:25.030Z,18.50
2022-11-19T12:40:59.633Z,17.20
2022-11-19T12:43:48.448Z,18.10
2022-11-19T12:46:24.868Z,22.13
2022-11-19T12:49:09.443Z,18.50
2022-11-19T12:51:52.111Z,16.60
2022-11-19T12:54:34.983Z,15.60
2022-11-19T12:57:18.724Z,17.77
2022-11-19T13:00:01.529Z,21.17
2022-11-19T13:02:33.381Z,21.03
2022-11-19T13:05:08.505Z,19.67
2022-11-19T13:07:41.426Z,18.00
2022-11-19T13:10:16.653Z,18.37
2022-11-19T13:12:49.982Z,17.27
2022-11-19T13:15:22.279Z,20.70
2022-11-19T13:17:54.646Z,20.67
2022-11-19T13:20:29.161Z,17.13
2022-11-19T13:23:02.899Z,18.67
2022-11-19T13:25:36.137Z,18.40
2022-11-19T13:28:08.403Z,18.17
2022-11-19T13:30:36.959Z,15.10
2022-11-19T13:33:14.947Z,18.50
2022-11-19T13:35:49.914Z,20.73
2022-11-19T13:38:24.731Z,13.40
2022-11-19T13:40:56.424Z,18.00
2022-11-19T13:43:42.246Z,21.03
2022-11-19T13:46:23.931Z,18.93
2022-11-19T13:48:58.869Z,15.40
2022-11-19T13:51:33.433Z,15.57
2022-11-19T13:54:04.087Z,16.70
2022-11-19T13:56:43.646Z,19.60
2022-11-19T13:59:29.346Z,22.53
2022-11-19T14:02:20.401Z,19.17
2022-11-19T14:05:05.909Z,20.57
2022-11-19T14:07:56.436Z,18.60
2022-11-19T14:10:30.560Z,20.20
2022-11-19T14:13:16.070Z,20.83
2022-11-19T14:16:26.209Z,22.10
2022-11-19T14:19:16.901Z,20.30
2022-11-19T14:22:10.601Z,20.60
2022-11-19T14:25:13.279Z,21.13
2022-11-19T14:27:41.377Z,20.33
2022-11-19T14:30:17.978Z,17.50
2022-11-19T14:32:48.892Z,22.50
2022-11-19T14:35:44.292Z,22.67
2022-11-19T14:38:42.749Z,24.80
2022-11-19T14:41:31.691Z,24.63
2022-11-19T14:44:31.690Z,22.73
2022-11-19T14:47:33.554Z,22.90
2022-11-19T14:50:04.043Z,23.87
2022-11-19T14:52:34.557Z,19.00
2022-11-19T14:55:05.638Z,20.30
2022-11-19T14:57:38.658Z,20.63
2022-11-19T15:00:24.899Z,18.37
2022-11-19T15:02:55.107Z,18.40
2022-11-19T15:05:28.219Z,21.20
2022-11-19T15:08:30.164Z,19.60
2022-11-19T15:11:07.747Z,18.53
2022-11-19T15:13:39.130Z,20.47
2022-11-19T15:16:19.801Z,21.80
2022-11-19T15:19:20.851Z,21.43
2022-11-19T15:22:06.890Z,21.23
2022-11-19T15:24:48.909Z,20.23
2022-11-19T15:27:23.069Z,21.70
2022-11-19T15:30:06.684Z,22.43
2022-11-19T15:33:00.963Z,21.70
2022-11-19T15:36:02.924Z,21.80
2022-11-19T15:38:36.104Z,19.87
2022-11-19T15:41:06.236Z,22.33
2022-11-19T15:43:38.645Z,21.87
2022-11-19T15:46:13.298Z,21.17
2022-11-19T15:48:51.288Z,16.27
2022-11-19T15:51:20.299Z,20.00
2022-11-19T15:53:59.802Z,18.67
2022-11-19T15:56:30.608Z,23.30
2022-11-19T15:58:58.751Z,19.27
2022-11-19T16:01:29.248Z,21.70
2022-11-19T16:03:57.347Z,20.97
2022-11-19T16:06:29.082Z,21.57
2022-11-19T16:09:00.195Z,18.60
2022-11-19T16:11:48.560Z,20.50
2022-11-19T16:14:41.243Z,20.90
2022-11-19T16:17:39.966Z,17.87
2022-11-19T16:20:21.398Z,14.87
2022-11-19T16:22:54.403Z,18.80
2022-11-19T16:25:28.339Z,19.60
2022-11-19T16:27:58.112Z,20.50
2022-11-19T16:30:27.623Z,15.90
2022-11-19T16:32:59.613Z,16.07
2022-11-19T16:35:30.218Z,15.50
2022-11-19T16:38:00.314Z,23.33
2022-11-19T16:40:49.988Z,14.90
2022-11-19T16:43:17.464Z,17.43
2022-11-19T16:45:47.575Z,16.33
2022-11-19T16:49:00.511Z,18.07
2022-11-19T16:51:41.180Z,17.07
2022-11-19T16:54:11.073Z,17.47
2022-11-19T16:56:43.525Z,15.40
2022-11-19T16:59:19.588Z,15.17
2022-11-19T17:01:53.987Z,15.20
2022-11-19T17:04:23.893Z,15.97
2022-11-19T17:06:53.289Z,16.73
2022-11-19T17:09:41.505Z,19.20
2022-11-19T17:12:25.116Z,15.87
2022-11-19T17:14:59.073Z,16.40
2022-11-19T17:17:44.906Z,16.77
2022-11-19T17:21:00.561Z,15.97
2022-11-19T17:23:31.361Z,18.40
2022-11-19T17:26:01.421Z,16.83
2022-11-19T17:28:35.201Z,20.43
2022-11-19T17:31:06.332Z,18.67
2022-11-19T17:33:36.681Z,20.87
2022-11-19T17:36:05.226Z,16.40
2022-11-19T17:38:34.942Z,15.70
2022-11-19T17:41:05.202Z,13.53
2022-11-19T17:43:52.385Z,17.97
2022-11-19T17:46:21.254Z,15.03
2022-11-19T17:48:50.873Z,15.93
2022-11-19T17:51:20.527Z,15.80
2022-11-19T17:53:51.339Z,19.80
2022-11-19T17:56:21.934Z,15.23
2022-11-19T17:58:49.830Z,15.53
2022-11-19T18:01:18.279Z,13.03
2022-11-19T18:03:46.398Z,15.13
2022-11-19T18:06:16.032Z,18.70
2022-11-19T18:08:44.837Z,15.30
2022-11-19T18:11:16.287Z,15.67
2022-11-19T18:13:45.058Z,17.00
2022-11-19T18:16:17.726Z,11.93
2022-11-19T18:18:45.826Z,15.10
2022-11-19T18:21:15.825Z,15.50
2022-11-19T18:23:45.295Z,15.73
2022-11-19T18:26:16.185Z,16.47
2022-11-19T18:28:47.781Z,15.37
2022-11-19T18:31:20.157Z,16.60
2022-11-19T18:33:49.211Z,17.80
2022-11-19T18:36:18.041Z,15.67
2022-11-19T18:38:46.241Z,17.20
2022-11-19T18:41:18.870Z,12.80
2022-11-19T18:44:04.491Z,15.70
2022-11-19T18:46:32.560Z,14.57
2022-11-19T18:49:00.563Z,16.40
2022-11-19T18:51:32.146Z,16.97
2022-11-19T18:54:00.120Z,17.13
2022-11-19T18:56:29.342Z,17.60
2022-11-19T18:59:01.857Z,17.50
2022-11-19T19:01:33.218Z,13.43
2022-11-19T19:04:01.245Z,15.20
2022-11-19T19:06:30.092Z,17.83
2022-11-19T19:08:57.971Z,14.57
2022-11-19T19:11:43.250Z,15.97
2022-11-19T19:14:12.514Z,15.03
2022-11-19T19:16:40.408Z,15.63
2022-11-19T19:19:08.314Z,11.77
2022-11-19T19:21:36.185Z,15.37
2022-11-19T19:24:05.262Z,13.73
2022-11-19T19:26:33.401Z,11.67
2022-11-19T19:29:01.387Z,12.17
2022-11-19T19:31:30.618Z,16.20
2022-11-19T19:33:58.503Z,12.40
2022-11-19T19:36:26.871Z,12.33
2022-11-19T19:38:55.367Z,15.33
2022-11-19T19:41:25.313Z,13.63
2022-11-19T19:43:54.775Z,14.20
2022-11-19T19:46:24.291Z,13.00
2022-11-19T19:48:55.038Z,11.93
2022-11-19T19:51:24.663Z,13.53
2022-11-19T19:53:53.109Z,12.17
2022-11-19T19:56:22.788Z,12.27
2022-11-19T19:58:51.712Z,17.97
2022-11-19T20:01:21.309Z,12.30
2022-11-19T20:03:54.253Z,12.73
2022-11-19T20:06:24.552Z,14.10
2022-11-19T20:08:52.511Z,14.07
2022-11-19T20:11:22.105Z,13.10
2022-11-19T20:13:50.010Z,15.07
2022-11-19T20:16:20.363Z,13.87
2022-11-19T20:18:50.616Z,15.23
2022-11-19T20:21:21.144Z,14.43
2022-11-19T20:23:50.548Z,14.20
2022-11-19T20:26:20.621Z,16.57
2022-11-19T20:28:48.977Z,19.17
2022-11-19T20:31:19.161Z,15.60
2022-11-19T20:33:48.882Z,17.20
2022-11-19T20:36:17.150Z,14.63
2022-11-19T20:38:46.234Z,17.97
2022-11-19T20:41:34.920Z,15.20
2022-11-19T20:44:23.070Z,22.70
2022-11-19T20:46:53.286Z,18.27
2022-11-19T20:49:23.397Z,16.20
2022-11-19T20:51:52.633Z,15.70
2022-11-19T20:54:21.448Z,15.37
2022-11-19T20:56:51.870Z,16.53
2022-11-19T20:59:20.295Z,16.20
2022-11-19T21:01:49.451Z,14.63
2022-11-19T21:04:18.097Z,12.57
2022-11-19T21:06:46.069Z,18.20
2022-11-19T21:09:15.627Z,14.07
2022-11-19T21:11:43.993Z,14.70
2022-11-19T21:14:13.751Z,14.20
2022-11-19T21:16:41.718Z,15.73
2022-11-19T21:19:10.594Z,14.00
2022-11-19T21:21:38.959Z,16.30
2022-11-19T21:24:07.902Z,18.57
2022-11-19T21:26:35.832Z,21.07
2022-11-19T21:29:03.810Z,16.90
2022-11-19T21:31:42.021Z,15.60
2022-11-19T21:34:12.146Z,16.77
2022-11-19T21:36:41.784Z,19.47
2022-11-19T21:39:10.776Z,17.30
2022-11-19T21:41:39.087Z,19.20
2022-11-19T21:44:07.795Z,18.63
2022-11-19T21:46:37.746Z,18.03
2022-11-19T21:49:06.339Z,16.37
2022-11-19T21:51:34.412Z,19.90
2022-11-19T21:54:02.399Z,17.00
2022-11-19T21:56:36.857Z,21.30
2022-11-19T21:59:06.639Z,19.43
2022-11-19T22:01:35.888Z,15.60
2022-11-19T22:04:04.016Z,21.73
2022-11-19T22:06:32.690Z,16.07
2022-11-19T22:09:00.654Z,18.10
2022-11-19T22:11:31.908Z,19.47
2022-11-19T22:14:02.345Z,20.57
2022-11-19T22:16:31.655Z,15.93
2022-11-19T22:19:00.951Z,19.50
2022-11-19T22:21:29.986Z,17.53
2022-11-19T22:23:57.957Z,19.93
2022-11-19T22:26:26.291Z,16.17
2022-11-19T22:28:54.256Z,19.63
2022-11-19T22:31:22.412Z,14.13
2022-11-19T22:33:51.904Z,15.03
2022-11-19T22:36:22.794Z,15.30
2022-11-19T22:38:51.657Z,12.07
2022-11-19T22:41:21.959Z,20.50
2022-11-19T22:43:50.481Z,18.13
2022-11-19T22:46:19.363Z,17.20
2022-11-19T22:48:47.480Z,17.80
2022-11-19T22:51:16.988Z,16.33
2022-11-19T22:53:46.550Z,18.97
2022-11-19T22:56:17.724Z,15.77
2022-11-19T22:58:45.931Z,16.97
2022-11-19T23:01:17.778Z,16.27
2022-11-19T23:03:46.005Z,15.83
2022-11-19T23:06:14.502Z,16.47
2022-11-19T23:08:42.902Z,12.80
2022-11-19T23:11:13.132Z,15.07
2022-11-19T23:13:41.943Z,17.63
2022-11-19T23:16:12.585Z,17.97
2022-11-19T23:18:42.641Z,14.20
2022-11-19T23:21:12.354Z,16.50
2022-11-19T23:23:40.379Z,14.43
2022-11-19T23:26:10.410Z,19.53
2022-11-19T23:28:40.071Z,15.33
2022-11-19T23:31:09.943Z,14.87
2022-11-19T23:33:38.140Z,18.97
2022-11-19T23:36:07.793Z,20.00
2022-11-19T23:38:36.199Z,17.60
2022-11-19T23:41:06.600Z,19.50
2022-11-19T23:43:34.919Z,17.70
2022-11-19T23:46:09.150Z,20.90
2022-11-19T23:48:38.279Z,18.40
2022-11-19T23:51:08.659Z,20.27
2022-11-19T23:53:37.012Z,16.87
2022-11-19T23:56:05.473Z,21.97
2022-11-19T23:58:34.208Z,17.77
